sensor_id;sensor_type;location;lat;lon;timestamp;temperature;humidity
12907;DHT22;6521;50.498;8.474;2023-04-03T00:01:54;3.67;75.65
12907;DHT22;6521;50.498;8.474;2023-04-03T00:04:25;3.63;75.56
12907;DHT22;6521;50.498;8.474;2023-04-03T00:06:56;3.60;75.52
12907;DHT22;6521;50.498;8.474;2023-04-03T00:09:26;3.61;75.29
12907;DHT22;6521;50.498;8.474;2023-04-03T00:11:57;3.60;75.16
12907;DHT22;6521;50.498;8.474;2023-04-03T00:14:28;3.63;75.55
12907;DHT22;6521;50.498;8.474;2023-04-03T00:16:58;3.61;75.35
12907;DHT22;6521;50.498;8.474;2023-04-03T00:19:29;3.60;75.05
12907;DHT22;6521;50.498;8.474;2023-04-03T00:22:00;3.63;74.79
12907;DHT22;6521;50.498;8.474;2023-04-03T00:24:31;3.63;75.03
12907;DHT22;6521;50.498;8.474;2023-04-03T00:27:01;3.64;75.58
12907;DHT22;6521;50.498;8.474;2023-04-03T00:29:32;3.67;74.89
12907;DHT22;6521;50.498;8.474;2023-04-03T00:32:03;3.66;74.78
12907;DHT22;6521;50.498;8.474;2023-04-03T00:34:34;3.63;74.33
12907;DHT22;6521;50.498;8.474;2023-04-03T00:37:04;3.64;74.85
12907;DHT22;6521;50.498;8.474;2023-04-03T00:39:35;3.64;75.20
12907;DHT22;6521;50.498;8.474;2023-04-03T00:42:06;3.64;74.49
12907;DHT22;6521;50.498;8.474;2023-04-03T00:47:13;3.64;74.93
12907;DHT22;6521;50.498;8.474;2023-04-03T00:49:45;3.63;74.66
12907;DHT22;6521;50.498;8.474;2023-04-03T00:52:19;3.64;74.66
12907;DHT22;6521;50.498;8.474;2023-04-03T00:54:54;3.67;74.74
12907;DHT22;6521;50.498;8.474;2023-04-03T00:57:28;3.64;75.10
12907;DHT22;6521;50.498;8.474;2023-04-03T01:00:05;3.64;74.72
12907;DHT22;6521;50.498;8.474;2023-04-03T01:02:37;3.67;74.73
12907;DHT22;6521;50.498;8.474;2023-04-03T01:05:12;3.66;75.50
12907;DHT22;6521;50.498;8.474;2023-04-03T01:07:43;3.64;74.84
12907;DHT22;6521;50.498;8.474;2023-04-03T01:10:15;3.64;75.15
12907;DHT22;6521;50.498;8.474;2023-04-03T01:12:49;3.61;75.08
12907;DHT22;6521;50.498;8.474;2023-04-03T01:15:24;3.57;75.47
12907;DHT22;6521;50.498;8.474;2023-04-03T01:17:56;3.56;75.24
12907;DHT22;6521;50.498;8.474;2023-04-03T01:25:49;3.51;75.50
12907;DHT22;6521;50.498;8.474;2023-04-03T01:28:25;3.51;75.32
12907;DHT22;6521;50.498;8.474;2023-04-03T01:33:44;3.46;76.29
12907;DHT22;6521;50.498;8.474;2023-04-03T01:36:20;3.44;75.46
12907;DHT22;6521;50.498;8.474;2023-04-03T01:38:52;3.48;75.87
12907;DHT22;6521;50.498;8.474;2023-04-03T01:41:23;3.43;76.02
12907;DHT22;6521;50.498;8.474;2023-04-03T01:43:56;3.46;75.78
12907;DHT22;6521;50.498;8.474;2023-04-03T01:46:27;3.47;76.04
12907;DHT22;6521;50.498;8.474;2023-04-03T01:48:57;3.44;75.96
12907;DHT22;6521;50.498;8.474;2023-04-03T01:51:28;3.44;75.70
12907;DHT22;6521;50.498;8.474;2023-04-03T01:53:59;3.41;75.74
12907;DHT22;6521;50.498;8.474;2023-04-03T01:56:30;3.43;75.73
12907;DHT22;6521;50.498;8.474;2023-04-03T01:59:01;3.40;75.36
12907;DHT22;6521;50.498;8.474;2023-04-03T02:01:32;3.40;75.04
12907;DHT22;6521;50.498;8.474;2023-04-03T02:04:03;3.37;74.95
12907;DHT22;6521;50.498;8.474;2023-04-03T02:06:34;3.36;75.06
12907;DHT22;6521;50.498;8.474;2023-04-03T02:09:05;3.34;75.20
12907;DHT22;6521;50.498;8.474;2023-04-03T02:11:36;3.31;74.98
12907;DHT22;6521;50.498;8.474;2023-04-03T02:14:07;3.29;74.94
12907;DHT22;6521;50.498;8.474;2023-04-03T02:16:38;3.30;74.77
12907;DHT22;6521;50.498;8.474;2023-04-03T02:19:09;3.29;74.96
12907;DHT22;6521;50.498;8.474;2023-04-03T02:21:39;3.22;74.79
12907;DHT22;6521;50.498;8.474;2023-04-03T02:24:10;3.17;74.39
12907;DHT22;6521;50.498;8.474;2023-04-03T02:26:41;3.16;74.04
12907;DHT22;6521;50.498;8.474;2023-04-03T02:29:12;3.12;74.25
12907;DHT22;6521;50.498;8.474;2023-04-03T02:31:42;3.06;74.57
12907;DHT22;6521;50.498;8.474;2023-04-03T02:34:13;2.99;74.61
12907;DHT22;6521;50.498;8.474;2023-04-03T02:36:45;2.92;74.66
12907;DHT22;6521;50.498;8.474;2023-04-03T02:39:17;2.87;74.87
12907;DHT22;6521;50.498;8.474;2023-04-03T02:41:48;2.81;75.03
12907;DHT22;6521;50.498;8.474;2023-04-03T02:44:25;2.79;74.92
12907;DHT22;6521;50.498;8.474;2023-04-03T02:46:57;2.78;74.96
12907;DHT22;6521;50.498;8.474;2023-04-03T02:49:27;2.68;75.36
12907;DHT22;6521;50.498;8.474;2023-04-03T02:51:58;2.66;75.66
12907;DHT22;6521;50.498;8.474;2023-04-03T02:54:29;2.65;75.42
12907;DHT22;6521;50.498;8.474;2023-04-03T02:57:06;2.61;75.68
12907;DHT22;6521;50.498;8.474;2023-04-03T02:59:39;2.57;76.08
12907;DHT22;6521;50.498;8.474;2023-04-03T03:02:11;2.55;76.19
12907;DHT22;6521;50.498;8.474;2023-04-03T03:04:42;2.47;76.33
12907;DHT22;6521;50.498;8.474;2023-04-03T03:07:13;2.50;76.34
12907;DHT22;6521;50.498;8.474;2023-04-03T03:09:43;2.42;76.62
12907;DHT22;6521;50.498;8.474;2023-04-03T03:12:14;2.40;76.79
12907;DHT22;6521;50.498;8.474;2023-04-03T03:14:45;2.33;77.06
12907;DHT22;6521;50.498;8.474;2023-04-03T03:17:16;2.31;77.07
12907;DHT22;6521;50.498;8.474;2023-04-03T03:19:47;2.26;77.20
12907;DHT22;6521;50.498;8.474;2023-04-03T03:22:18;2.16;77.43
12907;DHT22;6521;50.498;8.474;2023-04-03T03:24:49;2.14;77.79
12907;DHT22;6521;50.498;8.474;2023-04-03T03:27:20;2.13;77.81
12907;DHT22;6521;50.498;8.474;2023-04-03T03:29:51;2.10;77.64
12907;DHT22;6521;50.498;8.474;2023-04-03T03:32:22;2.05;77.85
12907;DHT22;6521;50.498;8.474;2023-04-03T03:34:53;2.06;77.91
12907;DHT22;6521;50.498;8.474;2023-04-03T03:37:24;1.99;77.66
12907;DHT22;6521;50.498;8.474;2023-04-03T03:39:55;1.98;77.65
12907;DHT22;6521;50.498;8.474;2023-04-03T03:42:26;1.95;78.02
12907;DHT22;6521;50.498;8.474;2023-04-03T03:44:57;1.86;77.90
12907;DHT22;6521;50.498;8.474;2023-04-03T03:47:28;1.85;77.88
12907;DHT22;6521;50.498;8.474;2023-04-03T03:50:00;1.80;78.09
12907;DHT22;6521;50.498;8.474;2023-04-03T03:52:31;1.76;77.89
12907;DHT22;6521;50.498;8.474;2023-04-03T03:55:02;1.72;77.67
12907;DHT22;6521;50.498;8.474;2023-04-03T03:57:33;1.73;77.49
12907;DHT22;6521;50.498;8.474;2023-04-03T04:00:05;1.66;77.66
12907;DHT22;6521;50.498;8.474;2023-04-03T04:02:46;1.58;77.80
12907;DHT22;6521;50.498;8.474;2023-04-03T04:05:20;1.58;78.21
12907;DHT22;6521;50.498;8.474;2023-04-03T04:07:52;1.54;78.26
12907;DHT22;6521;50.498;8.474;2023-04-03T04:10:23;1.49;77.80
12907;DHT22;6521;50.498;8.474;2023-04-03T04:12:54;1.44;77.55
12907;DHT22;6521;50.498;8.474;2023-04-03T04:15:28;1.44;77.96
12907;DHT22;6521;50.498;8.474;2023-04-03T04:18:00;1.38;78.09
12907;DHT22;6521;50.498;8.474;2023-04-03T04:20:31;1.41;78.07
12907;DHT22;6521;50.498;8.474;2023-04-03T04:23:02;1.32;78.08
12907;DHT22;6521;50.498;8.474;2023-04-03T04:25:35;1.32;78.11
12907;DHT22;6521;50.498;8.474;2023-04-03T04:28:06;1.27;78.47
12907;DHT22;6521;50.498;8.474;2023-04-03T04:30:37;1.24;79.25
12907;DHT22;6521;50.498;8.474;2023-04-03T04:33:08;1.21;79.18
12907;DHT22;6521;50.498;8.474;2023-04-03T04:35:41;1.17;78.93
12907;DHT22;6521;50.498;8.474;2023-04-03T04:38:12;1.14;79.45
12907;DHT22;6521;50.498;8.474;2023-04-03T04:40:43;1.14;79.47
12907;DHT22;6521;50.498;8.474;2023-04-03T04:43:14;1.16;79.69
12907;DHT22;6521;50.498;8.474;2023-04-03T04:45:47;1.13;79.80
12907;DHT22;6521;50.498;8.474;2023-04-03T04:48:18;1.10;79.51
12907;DHT22;6521;50.498;8.474;2023-04-03T04:50:49;1.04;80.01
12907;DHT22;6521;50.498;8.474;2023-04-03T04:53:20;1.01;80.07
12907;DHT22;6521;50.498;8.474;2023-04-03T04:55:52;0.99;79.94
12907;DHT22;6521;50.498;8.474;2023-04-03T04:58:23;0.93;80.23
12907;DHT22;6521;50.498;8.474;2023-04-03T05:01:04;0.86;80.06
12907;DHT22;6521;50.498;8.474;2023-04-03T05:03:36;0.86;80.45
12907;DHT22;6521;50.498;8.474;2023-04-03T05:06:08;0.84;80.42
12907;DHT22;6521;50.498;8.474;2023-04-03T05:08:40;0.83;80.60
12907;DHT22;6521;50.498;8.474;2023-04-03T05:11:12;0.77;80.41
12907;DHT22;6521;50.498;8.474;2023-04-03T05:13:44;0.75;80.83
12907;DHT22;6521;50.498;8.474;2023-04-03T05:16:15;0.75;80.68
12907;DHT22;6521;50.498;8.474;2023-04-03T05:18:46;0.75;80.72
12907;DHT22;6521;50.498;8.474;2023-04-03T05:21:22;0.70;80.65
12907;DHT22;6521;50.498;8.474;2023-04-03T05:23:56;0.70;80.70
12907;DHT22;6521;50.498;8.474;2023-04-03T05:26:27;0.68;80.27
12907;DHT22;6521;50.498;8.474;2023-04-03T05:28:58;0.66;80.36
12907;DHT22;6521;50.498;8.474;2023-04-03T05:31:29;0.66;80.25
12907;DHT22;6521;50.498;8.474;2023-04-03T05:34:01;0.65;80.33
12907;DHT22;6521;50.498;8.474;2023-04-03T05:36:35;0.66;80.71
12907;DHT22;6521;50.498;8.474;2023-04-03T05:39:09;0.63;80.19
12907;DHT22;6521;50.498;8.474;2023-04-03T05:41:43;0.60;80.24
12907;DHT22;6521;50.498;8.474;2023-04-03T05:44:14;0.62;80.29
12907;DHT22;6521;50.498;8.474;2023-04-03T05:46:47;0.65;80.41
12907;DHT22;6521;50.498;8.474;2023-04-03T05:49:18;0.65;80.39
12907;DHT22;6521;50.498;8.474;2023-04-03T05:51:49;0.66;80.30
12907;DHT22;6521;50.498;8.474;2023-04-03T05:54:29;0.69;80.11
12907;DHT22;6521;50.498;8.474;2023-04-03T05:57:16;0.70;80.08
12907;DHT22;6521;50.498;8.474;2023-04-03T05:59:48;0.73;80.22
12907;DHT22;6521;50.498;8.474;2023-04-03T06:02:21;0.75;80.22
12907;DHT22;6521;50.498;8.474;2023-04-03T06:04:52;0.76;80.45
12907;DHT22;6521;50.498;8.474;2023-04-03T06:07:24;0.79;80.68
12907;DHT22;6521;50.498;8.474;2023-04-03T06:09:58;0.79;80.12
12907;DHT22;6521;50.498;8.474;2023-04-03T06:12:29;0.84;80.07
12907;DHT22;6521;50.498;8.474;2023-04-03T06:15:01;0.86;80.32
12907;DHT22;6521;50.498;8.474;2023-04-03T06:17:32;0.86;80.55
12907;DHT22;6521;50.498;8.474;2023-04-03T06:20:04;0.90;80.62
12907;DHT22;6521;50.498;8.474;2023-04-03T06:22:35;0.91;80.17
12907;DHT22;6521;50.498;8.474;2023-04-03T06:25:07;0.96;80.54
12907;DHT22;6521;50.498;8.474;2023-04-03T06:27:38;0.99;80.08
12907;DHT22;6521;50.498;8.474;2023-04-03T06:30:09;1.00;80.61
12907;DHT22;6521;50.498;8.474;2023-04-03T06:32:41;1.01;80.51
12907;DHT22;6521;50.498;8.474;2023-04-03T06:35:13;1.05;80.51
12907;DHT22;6521;50.498;8.474;2023-04-03T06:37:44;1.07;80.39
12907;DHT22;6521;50.498;8.474;2023-04-03T06:40:21;1.10;80.70
12907;DHT22;6521;50.498;8.474;2023-04-03T06:42:52;1.11;80.03
12907;DHT22;6521;50.498;8.474;2023-04-03T06:45:24;1.16;80.55
12907;DHT22;6521;50.498;8.474;2023-04-03T06:47:56;1.17;80.38
12907;DHT22;6521;50.498;8.474;2023-04-03T06:50:26;1.27;80.90
12907;DHT22;6521;50.498;8.474;2023-04-03T06:52:57;1.34;80.94
12907;DHT22;6521;50.498;8.474;2023-04-03T06:55:28;1.41;80.39
12907;DHT22;6521;50.498;8.474;2023-04-03T06:57:59;1.32;80.33
12907;DHT22;6521;50.498;8.474;2023-04-03T07:00:30;1.32;80.06
12907;DHT22;6521;50.498;8.474;2023-04-03T07:03:01;1.32;80.25
12907;DHT22;6521;50.498;8.474;2023-04-03T07:05:32;1.32;80.47
12907;DHT22;6521;50.498;8.474;2023-04-03T07:08:03;1.24;79.77
12907;DHT22;6521;50.498;8.474;2023-04-03T07:10:34;1.28;80.79
12907;DHT22;6521;50.498;8.474;2023-04-03T07:13:05;1.32;80.12
12907;DHT22;6521;50.498;8.474;2023-04-03T07:15:35;1.35;80.52
12907;DHT22;6521;50.498;8.474;2023-04-03T07:18:07;1.42;80.52
12907;DHT22;6521;50.498;8.474;2023-04-03T07:20:38;1.47;80.40
12907;DHT22;6521;50.498;8.474;2023-04-03T07:23:10;1.49;80.53
12907;DHT22;6521;50.498;8.474;2023-04-03T07:25:45;1.52;80.54
12907;DHT22;6521;50.498;8.474;2023-04-03T07:28:18;1.56;80.74
12907;DHT22;6521;50.498;8.474;2023-04-03T07:30:51;1.62;80.50
12907;DHT22;6521;50.498;8.474;2023-04-03T07:33:23;1.66;80.03
12907;DHT22;6521;50.498;8.474;2023-04-03T07:35:54;1.68;79.16
12907;DHT22;6521;50.498;8.474;2023-04-03T07:38:25;1.58;78.60
12907;DHT22;6521;50.498;8.474;2023-04-03T07:40:56;1.56;79.08
12907;DHT22;6521;50.498;8.474;2023-04-03T07:43:26;1.69;79.20
12907;DHT22;6521;50.498;8.474;2023-04-03T07:45:58;1.63;79.00
12907;DHT22;6521;50.498;8.474;2023-04-03T07:48:29;1.65;78.75
12907;DHT22;6521;50.498;8.474;2023-04-03T07:51:01;1.59;78.81
12907;DHT22;6521;50.498;8.474;2023-04-03T07:53:32;1.65;79.55
12907;DHT22;6521;50.498;8.474;2023-04-03T07:56:03;1.79;79.17
12907;DHT22;6521;50.498;8.474;2023-04-03T07:58:34;1.89;78.93
12907;DHT22;6521;50.498;8.474;2023-04-03T08:01:05;1.98;78.65
12907;DHT22;6521;50.498;8.474;2023-04-03T08:03:36;2.16;79.01
12907;DHT22;6521;50.498;8.474;2023-04-03T08:06:09;2.27;79.19
12907;DHT22;6521;50.498;8.474;2023-04-03T08:08:40;2.30;77.14
12907;DHT22;6521;50.498;8.474;2023-04-03T08:11:11;2.41;77.81
12907;DHT22;6521;50.498;8.474;2023-04-03T08:13:42;2.50;77.63
12907;DHT22;6521;50.498;8.474;2023-04-03T08:16:18;2.52;76.86
12907;DHT22;6521;50.498;8.474;2023-04-03T08:18:50;2.61;77.01
12907;DHT22;6521;50.498;8.474;2023-04-03T08:21:21;2.59;76.21
12907;DHT22;6521;50.498;8.474;2023-04-03T08:23:52;2.45;76.06
12907;DHT22;6521;50.498;8.474;2023-04-03T08:26:23;2.52;75.56
12907;DHT22;6521;50.498;8.474;2023-04-03T08:28:54;2.65;76.16
12907;DHT22;6521;50.498;8.474;2023-04-03T08:31:25;2.82;75.37
12907;DHT22;6521;50.498;8.474;2023-04-03T08:33:56;2.93;74.67
12907;DHT22;6521;50.498;8.474;2023-04-03T08:36:29;3.20;76.14
12907;DHT22;6521;50.498;8.474;2023-04-03T08:39:02;3.27;73.83
12907;DHT22;6521;50.498;8.474;2023-04-03T08:41:42;3.48;74.02
12907;DHT22;6521;50.498;8.474;2023-04-03T08:49:55;4.26;72.79
12907;DHT22;6521;50.498;8.474;2023-04-03T08:52:40;4.56;73.24
12907;DHT22;6521;50.498;8.474;2023-04-03T08:55:23;4.83;72.52
12907;DHT22;6521;50.498;8.474;2023-04-03T08:58:05;5.04;72.24
12907;DHT22;6521;50.498;8.474;2023-04-03T09:03:48;5.40;71.25
12907;DHT22;6521;50.498;8.474;2023-04-03T09:06:22;5.53;68.17
12907;DHT22;6521;50.498;8.474;2023-04-03T09:09:12;5.77;69.93
12907;DHT22;6521;50.498;8.474;2023-04-03T09:22:47;5.49;66.94
12907;DHT22;6521;50.498;8.474;2023-04-03T09:25:22;6.04;65.14
12907;DHT22;6521;50.498;8.474;2023-04-03T09:27:53;6.34;63.40
12907;DHT22;6521;50.498;8.474;2023-04-03T09:30:25;6.65;64.06
12907;DHT22;6521;50.498;8.474;2023-04-03T09:32:57;6.83;61.05
12907;DHT22;6521;50.498;8.474;2023-04-03T09:35:32;6.90;58.85
12907;DHT22;6521;50.498;8.474;2023-04-03T09:40:44;6.97;57.91
12907;DHT22;6521;50.498;8.474;2023-04-03T09:43:27;7.21;59.47
12907;DHT22;6521;50.498;8.474;2023-04-03T09:46:30;7.69;58.32
12907;DHT22;6521;50.498;8.474;2023-04-03T09:49:03;7.76;55.18
12907;DHT22;6521;50.498;8.474;2023-04-03T09:51:35;7.87;55.31
12907;DHT22;6521;50.498;8.474;2023-04-03T09:54:36;7.94;55.84
12907;DHT22;6521;50.498;8.474;2023-04-03T09:57:13;8.07;53.70
12907;DHT22;6521;50.498;8.474;2023-04-03T10:00:04;8.64;55.80
12907;DHT22;6521;50.498;8.474;2023-04-03T10:02:40;8.85;52.10
12907;DHT22;6521;50.498;8.474;2023-04-03T10:05:41;8.99;51.28
12907;DHT22;6521;50.498;8.474;2023-04-03T10:11:14;9.52;51.82
12907;DHT22;6521;50.498;8.474;2023-04-03T10:13:53;9.78;51.96
12907;DHT22;6521;50.498;8.474;2023-04-03T10:22:18;10.18;51.24
12907;DHT22;6521;50.498;8.474;2023-04-03T10:24:58;10.45;49.81
12907;DHT22;6521;50.498;8.474;2023-04-03T10:30:48;10.35;50.43
12907;DHT22;6521;50.498;8.474;2023-04-03T10:33:39;10.52;47.80
12907;DHT22;6521;50.498;8.474;2023-04-03T10:36:41;10.77;48.82
12907;DHT22;6521;50.498;8.474;2023-04-03T10:44:48;10.61;47.34
12907;DHT22;6521;50.498;8.474;2023-04-03T10:47:23;10.76;46.68
12907;DHT22;6521;50.498;8.474;2023-04-03T10:53:16;10.67;46.93
12907;DHT22;6521;50.498;8.474;2023-04-03T10:56:01;10.91;45.95
12907;DHT22;6521;50.498;8.474;2023-04-03T10:58:41;10.97;45.75
12907;DHT22;6521;50.498;8.474;2023-04-03T11:01:20;11.08;46.72
12907;DHT22;6521;50.498;8.474;2023-04-03T11:03:56;11.31;45.51
12907;DHT22;6521;50.498;8.474;2023-04-03T11:06:39;11.39;44.46
12907;DHT22;6521;50.498;8.474;2023-04-03T11:09:35;11.73;46.55
12907;DHT22;6521;50.498;8.474;2023-04-03T11:12:27;11.67;44.45
12907;DHT22;6521;50.498;8.474;2023-04-03T11:15:01;11.18;42.10
12907;DHT22;6521;50.498;8.474;2023-04-03T11:17:39;10.90;42.65
12907;DHT22;6521;50.498;8.474;2023-04-03T11:20:26;10.85;47.59
12907;DHT22;6521;50.498;8.474;2023-04-03T11:25:53;11.21;43.95
12907;DHT22;6521;50.498;8.474;2023-04-03T11:28:24;11.25;45.21
12907;DHT22;6521;50.498;8.474;2023-04-03T11:31:13;11.43;43.35
12907;DHT22;6521;50.498;8.474;2023-04-03T11:36:51;12.04;41.57
12907;DHT22;6521;50.498;8.474;2023-04-03T11:39:34;12.21;42.09
12907;DHT22;6521;50.498;8.474;2023-04-03T11:42:16;12.46;40.11
12907;DHT22;6521;50.498;8.474;2023-04-03T11:44:48;12.56;41.96
12907;DHT22;6521;50.498;8.474;2023-04-03T11:47:45;12.58;41.57
12907;DHT22;6521;50.498;8.474;2023-04-03T12:16:25;12.13;41.55
12907;DHT22;6521;50.498;8.474;2023-04-03T12:19:45;12.00;40.95
12907;DHT22;6521;50.498;8.474;2023-04-03T12:24:32;10.85;42.68
12907;DHT22;6521;50.498;8.474;2023-04-03T12:27:14;11.15;44.21
12907;DHT22;6521;50.498;8.474;2023-04-03T12:29:52;11.66;44.58
12907;DHT22;6521;50.498;8.474;2023-04-03T12:46:42;12.16;40.37
12907;DHT22;6521;50.498;8.474;2023-04-03T12:49:40;12.18;41.75
12907;DHT22;6521;50.498;8.474;2023-04-03T12:54:56;11.97;41.31
12907;DHT22;6521;50.498;8.474;2023-04-03T12:57:27;12.21;43.76
12907;DHT22;6521;50.498;8.474;2023-04-03T12:59:58;12.34;40.94
12907;DHT22;6521;50.498;8.474;2023-04-03T13:02:32;12.41;42.10
12907;DHT22;6521;50.498;8.474;2023-04-03T13:05:07;12.45;41.79
12907;DHT22;6521;50.498;8.474;2023-04-03T13:07:38;12.37;42.01
12907;DHT22;6521;50.498;8.474;2023-04-03T13:10:16;11.61;39.36
12907;DHT22;6521;50.498;8.474;2023-04-03T13:12:53;10.88;40.30
12907;DHT22;6521;50.498;8.474;2023-04-03T13:15:27;10.91;40.53
12907;DHT22;6521;50.498;8.474;2023-04-03T13:17:58;10.88;42.09
12907;DHT22;6521;50.498;8.474;2023-04-03T13:20:32;11.21;43.27
12907;DHT22;6521;50.498;8.474;2023-04-03T13:23:08;11.39;41.57
12907;DHT22;6521;50.498;8.474;2023-04-03T13:25:43;11.70;41.04
12907;DHT22;6521;50.498;8.474;2023-04-03T13:28:20;11.59;39.33
12907;DHT22;6521;50.498;8.474;2023-04-03T13:36:44;11.93;42.60
12907;DHT22;6521;50.498;8.474;2023-04-03T13:41:56;11.96;42.74
12907;DHT22;6521;50.498;8.474;2023-04-03T13:44:34;11.89;41.50
12907;DHT22;6521;50.498;8.474;2023-04-03T13:52:39;10.30;45.27
12907;DHT22;6521;50.498;8.474;2023-04-03T13:57:59;10.93;42.71
12907;DHT22;6521;50.498;8.474;2023-04-03T14:00:52;10.93;40.27
12907;DHT22;6521;50.498;8.474;2023-04-03T14:06:24;10.70;41.97
12907;DHT22;6521;50.498;8.474;2023-04-03T14:08:55;10.43;44.20
12907;DHT22;6521;50.498;8.474;2023-04-03T14:11:28;10.74;42.96
12907;DHT22;6521;50.498;8.474;2023-04-03T14:14:05;10.98;41.87
12907;DHT22;6521;50.498;8.474;2023-04-03T14:16:39;11.34;41.08
12907;DHT22;6521;50.498;8.474;2023-04-03T14:19:31;11.26;39.91
12907;DHT22;6521;50.498;8.474;2023-04-03T14:22:32;11.63;41.06
12907;DHT22;6521;50.498;8.474;2023-04-03T14:25:04;11.49;41.62
12907;DHT22;6521;50.498;8.474;2023-04-03T14:27:41;10.96;41.27
12907;DHT22;6521;50.498;8.474;2023-04-03T14:30:22;10.16;42.40
12907;DHT22;6521;50.498;8.474;2023-04-03T14:32:53;10.06;41.92
12907;DHT22;6521;50.498;8.474;2023-04-03T14:35:25;9.65;41.84
12907;DHT22;6521;50.498;8.474;2023-04-03T14:37:56;9.09;43.08
12907;DHT22;6521;50.498;8.474;2023-04-03T14:40:27;8.89;42.92
12907;DHT22;6521;50.498;8.474;2023-04-03T14:42:58;9.22;44.21
12907;DHT22;6521;50.498;8.474;2023-04-03T14:45:29;9.82;44.80
12907;DHT22;6521;50.498;8.474;2023-04-03T14:48:00;10.28;42.71
12907;DHT22;6521;50.498;8.474;2023-04-03T14:50:31;10.49;43.10
12907;DHT22;6521;50.498;8.474;2023-04-03T14:53:01;10.42;39.55
12907;DHT22;6521;50.498;8.474;2023-04-03T14:55:32;9.87;40.40
12907;DHT22;6521;50.498;8.474;2023-04-03T14:58:03;9.70;43.44
12907;DHT22;6521;50.498;8.474;2023-04-03T15:00:34;9.71;42.20
12907;DHT22;6521;50.498;8.474;2023-04-03T15:03:05;9.87;43.69
12907;DHT22;6521;50.498;8.474;2023-04-03T15:05:35;9.94;42.71
12907;DHT22;6521;50.498;8.474;2023-04-03T15:10:50;10.05;42.35
12907;DHT22;6521;50.498;8.474;2023-04-03T15:13:23;9.98;40.44
12907;DHT22;6521;50.498;8.474;2023-04-03T15:15:54;9.91;41.59
12907;DHT22;6521;50.498;8.474;2023-04-03T15:18:27;9.89;41.75
12907;DHT22;6521;50.498;8.474;2023-04-03T15:20:58;9.97;42.68
12907;DHT22;6521;50.498;8.474;2023-04-03T15:23:29;10.03;41.26
12907;DHT22;6521;50.498;8.474;2023-04-03T15:26:01;10.01;42.10
12907;DHT22;6521;50.498;8.474;2023-04-03T15:28:35;9.91;41.23
12907;DHT22;6521;50.498;8.474;2023-04-03T15:31:06;9.77;42.79
12907;DHT22;6521;50.498;8.474;2023-04-03T15:33:38;9.77;43.04
12907;DHT22;6521;50.498;8.474;2023-04-03T15:36:08;9.75;42.34
12907;DHT22;6521;50.498;8.474;2023-04-03T15:38:39;9.73;43.89
12907;DHT22;6521;50.498;8.474;2023-04-03T15:41:10;9.64;42.04
12907;DHT22;6521;50.498;8.474;2023-04-03T15:43:41;9.57;42.67
12907;DHT22;6521;50.498;8.474;2023-04-03T15:46:12;9.37;43.69
12907;DHT22;6521;50.498;8.474;2023-04-03T15:48:43;9.03;44.46
12907;DHT22;6521;50.498;8.474;2023-04-03T15:51:15;8.71;43.25
12907;DHT22;6521;50.498;8.474;2023-04-03T15:53:45;8.67;45.87
12907;DHT22;6521;50.498;8.474;2023-04-03T15:56:16;8.61;45.49
12907;DHT22;6521;50.498;8.474;2023-04-03T15:58:47;8.36;43.44
12907;DHT22;6521;50.498;8.474;2023-04-03T16:01:18;8.04;43.23
12907;DHT22;6521;50.498;8.474;2023-04-03T16:03:49;7.86;45.30
12907;DHT22;6521;50.498;8.474;2023-04-03T16:06:20;7.82;45.04
12907;DHT22;6521;50.498;8.474;2023-04-03T16:08:51;7.87;46.12
12907;DHT22;6521;50.498;8.474;2023-04-03T16:11:22;7.83;46.09
12907;DHT22;6521;50.498;8.474;2023-04-03T16:13:53;7.85;45.14
12907;DHT22;6521;50.498;8.474;2023-04-03T16:16:24;7.79;44.98
12907;DHT22;6521;50.498;8.474;2023-04-03T16:18:57;7.73;45.41
12907;DHT22;6521;50.498;8.474;2023-04-03T16:21:28;7.58;44.96
12907;DHT22;6521;50.498;8.474;2023-04-03T16:24:00;7.48;46.41
12907;DHT22;6521;50.498;8.474;2023-04-03T16:26:31;7.50;47.34
12907;DHT22;6521;50.498;8.474;2023-04-03T16:29:02;7.50;46.53
12907;DHT22;6521;50.498;8.474;2023-04-03T16:31:33;7.42;47.39
12907;DHT22;6521;50.498;8.474;2023-04-03T16:34:04;7.35;48.53
12907;DHT22;6521;50.498;8.474;2023-04-03T16:36:34;7.17;49.26
12907;DHT22;6521;50.498;8.474;2023-04-03T16:39:05;7.18;48.36
12907;DHT22;6521;50.498;8.474;2023-04-03T16:41:36;7.17;48.23
12907;DHT22;6521;50.498;8.474;2023-04-03T16:44:07;7.21;49.15
12907;DHT22;6521;50.498;8.474;2023-04-03T16:46:38;7.25;49.20
12907;DHT22;6521;50.498;8.474;2023-04-03T16:49:08;7.31;49.10
12907;DHT22;6521;50.498;8.474;2023-04-03T16:51:39;7.21;47.89
12907;DHT22;6521;50.498;8.474;2023-04-03T16:54:11;7.08;48.86
12907;DHT22;6521;50.498;8.474;2023-04-03T16:56:43;6.99;49.29
12907;DHT22;6521;50.498;8.474;2023-04-03T16:59:14;6.82;47.78
12907;DHT22;6521;50.498;8.474;2023-04-03T17:01:45;6.75;48.80
12907;DHT22;6521;50.498;8.474;2023-04-03T17:04:16;6.66;48.23
12907;DHT22;6521;50.498;8.474;2023-04-03T17:06:47;6.53;48.47
12907;DHT22;6521;50.498;8.474;2023-04-03T17:09:18;6.45;50.07
12907;DHT22;6521;50.498;8.474;2023-04-03T17:11:49;6.31;49.44
12907;DHT22;6521;50.498;8.474;2023-04-03T17:14:19;6.21;49.72
12907;DHT22;6521;50.498;8.474;2023-04-03T17:16:50;6.05;50.55
12907;DHT22;6521;50.498;8.474;2023-04-03T17:19:21;5.90;51.05
12907;DHT22;6521;50.498;8.474;2023-04-03T17:21:53;5.84;52.66
12907;DHT22;6521;50.498;8.474;2023-04-03T17:24:24;5.77;51.68
12907;DHT22;6521;50.498;8.474;2023-04-03T17:26:55;5.80;52.25
12907;DHT22;6521;50.498;8.474;2023-04-03T17:29:25;5.80;52.50
12907;DHT22;6521;50.498;8.474;2023-04-03T17:31:56;5.78;52.18
12907;DHT22;6521;50.498;8.474;2023-04-03T17:34:27;5.76;52.74
12907;DHT22;6521;50.498;8.474;2023-04-03T17:36:58;5.71;52.64
12907;DHT22;6521;50.498;8.474;2023-04-03T17:39:29;5.69;52.78
12907;DHT22;6521;50.498;8.474;2023-04-03T17:41:59;5.60;52.58
12907;DHT22;6521;50.498;8.474;2023-04-03T17:44:30;5.53;53.77
12907;DHT22;6521;50.498;8.474;2023-04-03T17:47:01;5.42;52.81
12907;DHT22;6521;50.498;8.474;2023-04-03T17:49:32;5.36;52.77
12907;DHT22;6521;50.498;8.474;2023-04-03T17:52:03;5.25;53.58
12907;DHT22;6521;50.498;8.474;2023-04-03T17:54:33;5.18;52.81
12907;DHT22;6521;50.498;8.474;2023-04-03T17:57:04;5.11;53.77
12907;DHT22;6521;50.498;8.474;2023-04-03T17:59:35;5.02;53.90
12907;DHT22;6521;50.498;8.474;2023-04-03T18:02:06;4.97;54.34
12907;DHT22;6521;50.498;8.474;2023-04-03T18:04:37;4.88;54.58
12907;DHT22;6521;50.498;8.474;2023-04-03T18:07:08;4.80;55.66
12907;DHT22;6521;50.498;8.474;2023-04-03T18:09:39;4.70;56.41
12907;DHT22;6521;50.498;8.474;2023-04-03T18:12:10;4.63;56.24
12907;DHT22;6521;50.498;8.474;2023-04-03T18:14:41;4.56;56.37
12907;DHT22;6521;50.498;8.474;2023-04-03T18:17:13;4.49;56.45
12907;DHT22;6521;50.498;8.474;2023-04-03T18:19:43;4.40;57.32
12907;DHT22;6521;50.498;8.474;2023-04-03T18:22:15;4.33;56.69
12907;DHT22;6521;50.498;8.474;2023-04-03T18:24:48;4.28;57.58
12907;DHT22;6521;50.498;8.474;2023-04-03T18:27:21;4.28;57.66
12907;DHT22;6521;50.498;8.474;2023-04-03T18:30:15;4.20;56.96
12907;DHT22;6521;50.498;8.474;2023-04-03T18:32:46;4.13;58.10
12907;DHT22;6521;50.498;8.474;2023-04-03T18:35:17;4.08;57.95
12907;DHT22;6521;50.498;8.474;2023-04-03T18:37:48;4.02;58.25
12907;DHT22;6521;50.498;8.474;2023-04-03T18:40:18;3.99;58.71
12907;DHT22;6521;50.498;8.474;2023-04-03T18:42:49;3.92;59.27
12907;DHT22;6521;50.498;8.474;2023-04-03T18:45:21;3.88;60.05
12907;DHT22;6521;50.498;8.474;2023-04-03T18:47:53;3.79;60.18